createdAt,value
2023-01-29T00:00:14.084Z,8.43
2023-01-29T00:05:28.517Z,6.93
2023-01-29T00:10:34.262Z,8.20
2023-01-29T00:15:38.135Z,7.00
2023-01-29T00:20:45.124Z,6.40
2023-01-29T00:25:50.931Z,7.18
2023-01-29T00:30:55.158Z,7.40
2023-01-29T00:35:59.184Z,7.13
2023-01-29T00:41:26.218Z,6.22
2023-01-29T00:46:30.235Z,5.93
2023-01-29T00:51:34.726Z,6.05
2023-01-29T00:56:40.443Z,6.63
2023-01-29T01:02:02.147Z,5.28
2023-01-29T01:07:07.078Z,5.93
2023-01-29T01:12:12.959Z,6.93
2023-01-29T01:17:16.906Z,6.00
2023-01-29T01:22:23.305Z,6.47
2023-01-29T01:27:30.101Z,5.57
2023-01-29T01:32:34.454Z,5.45
2023-01-29T01:37:38.979Z,5.30
2023-01-29T01:42:44.639Z,6.45
2023-01-29T01:47:53.519Z,5.47
2023-01-29T01:53:02.837Z,6.20
2023-01-29T01:58:13.565Z,5.78
2023-01-29T02:03:38.533Z,5.10
2023-01-29T02:09:07.614Z,5.63
2023-01-29T02:14:14.597Z,5.40
2023-01-29T02:19:27.108Z,5.55
2023-01-29T02:25:09.824Z,5.18
2023-01-29T02:30:22.273Z,5.38
2023-01-29T02:35:33.441Z,5.55
2023-01-29T02:40:44.324Z,5.20
2023-01-29T02:45:58.050Z,5.75
2023-01-29T02:51:10.020Z,5.47
2023-01-29T02:56:20.347Z,4.85
2023-01-29T03:01:32.580Z,6.00
2023-01-29T03:06:41.489Z,6.78
2023-01-29T03:11:50.682Z,6.57
2023-01-29T03:17:00.674Z,5.97
2023-01-29T03:22:08.559Z,6.32
2023-01-29T03:27:32.525Z,4.70
2023-01-29T03:32:39.763Z,5.22
2023-01-29T03:37:48.429Z,5.55
2023-01-29T03:43:04.684Z,4.70
2023-01-29T03:48:15.399Z,4.30
2023-01-29T03:53:26.145Z,4.55
2023-01-29T03:58:38.545Z,4.47
2023-01-29T04:03:51.300Z,4.75
2023-01-29T04:09:01.224Z,3.67
2023-01-29T04:14:08.142Z,2.53
2023-01-29T04:19:13.940Z,5.05
2023-01-29T04:24:20.277Z,4.43
2023-01-29T04:29:38.283Z,3.63
2023-01-29T04:34:57.309Z,4.93
2023-01-29T04:40:12.315Z,4.47
2023-01-29T04:45:21.319Z,4.78
2023-01-29T04:50:31.981Z,7.60
2023-01-29T04:55:42.956Z,6.82
2023-01-29T05:00:50.278Z,3.22
2023-01-29T05:05:58.543Z,4.82
2023-01-29T05:11:02.787Z,6.47
2023-01-29T05:16:11.257Z,3.92
2023-01-29T05:21:16.801Z,3.53
2023-01-29T05:26:38.995Z,2.53
2023-01-29T05:31:46.080Z,3.65
2023-01-29T05:36:52.828Z,7.82
2023-01-29T05:41:57.793Z,13.30
2023-01-29T05:47:03.051Z,4.90
2023-01-29T05:52:08.644Z,8.85
2023-01-29T05:57:12.634Z,7.18
2023-01-29T06:02:16.952Z,6.63
2023-01-29T06:07:22.421Z,7.60
2023-01-29T06:12:27.409Z,6.75
2023-01-29T06:17:32.136Z,9.40
2023-01-29T06:22:38.803Z,5.85
2023-01-29T06:27:43.301Z,4.50
2023-01-29T06:32:48.449Z,4.70
2023-01-29T06:37:54.370Z,5.90
2023-01-29T06:42:58.500Z,3.75
2023-01-29T06:48:02.964Z,4.72
2023-01-29T06:53:09.321Z,6.03
2023-01-29T06:58:15.026Z,4.25
2023-01-29T07:03:19.906Z,5.65
2023-01-29T07:08:26.589Z,5.50
2023-01-29T07:13:32.123Z,4.65
2023-01-29T07:18:37.633Z,7.40
2023-01-29T07:23:44.810Z,9.90
2023-01-29T07:28:49.408Z,11.73
2023-01-29T07:33:54.333Z,10.48
2023-01-29T07:39:00.770Z,14.25
2023-01-29T07:44:06.122Z,8.20
2023-01-29T07:49:10.982Z,11.25
2023-01-29T07:54:17.837Z,5.80
2023-01-29T07:59:27.304Z,4.55
2023-01-29T08:04:32.410Z,10.35
2023-01-29T08:09:40.005Z,7.15
2023-01-29T08:14:46.377Z,8.10
2023-01-29T08:19:52.027Z,8.48
2023-01-29T08:25:06.364Z,6.40
2023-01-29T08:30:14.365Z,9.70
2023-01-29T08:35:20.723Z,8.90
2023-01-29T08:40:28.339Z,8.02
2023-01-29T08:45:48.850Z,6.60
2023-01-29T08:50:53.194Z,8.93
2023-01-29T08:55:59.153Z,7.82
2023-01-29T09:01:13.593Z,11.85
2023-01-29T09:06:28.723Z,5.50
2023-01-29T09:11:53.274Z,4.95
2023-01-29T09:17:02.407Z,7.45
2023-01-29T09:22:10.998Z,8.00
2023-01-29T09:27:21.368Z,6.72
2023-01-29T09:37:58.443Z,5.40
2023-01-29T09:43:17.614Z,4.70
2023-01-29T09:48:27.906Z,7.10
2023-01-29T09:53:50.141Z,8.25
2023-01-29T09:59:01.773Z,6.00
2023-01-29T10:04:40.431Z,5.18
2023-01-29T10:10:17.156Z,6.10
2023-01-29T10:15:36.578Z,10.02
2023-01-29T10:20:58.236Z,9.02
2023-01-29T10:26:20.881Z,4.63
2023-01-29T10:31:33.003Z,4.95
2023-01-29T10:36:44.649Z,3.72
2023-01-29T10:42:14.959Z,6.75
2023-01-29T10:47:49.577Z,4.78
2023-01-29T10:53:18.629Z,3.42
2023-01-29T10:58:32.047Z,5.60
2023-01-29T11:03:39.119Z,5.03
2023-01-29T11:08:58.254Z,6.88
2023-01-29T11:14:07.831Z,8.50
2023-01-29T11:19:15.661Z,7.10
2023-01-29T11:24:21.488Z,5.88
2023-01-29T11:29:44.992Z,5.20
2023-01-29T11:35:02.985Z,7.30
2023-01-29T11:40:46.599Z,5.53
2023-01-29T11:45:59.511Z,4.07
2023-01-29T11:51:07.142Z,6.25
2023-01-29T11:56:30.940Z,8.40
2023-01-29T12:01:41.082Z,5.47
2023-01-29T12:06:52.548Z,4.25
2023-01-29T12:12:20.168Z,5.93
2023-01-29T12:17:30.492Z,3.33
2023-01-29T12:22:47.190Z,7.40
2023-01-29T12:28:01.102Z,4.80
2023-01-29T12:33:16.080Z,3.65
2023-01-29T12:38:27.879Z,4.22
2023-01-29T12:43:41.973Z,6.63
2023-01-29T12:48:48.750Z,8.23
2023-01-29T12:53:58.960Z,12.88
2023-01-29T12:59:12.368Z,8.32
2023-01-29T13:04:24.382Z,11.50
2023-01-29T13:09:34.380Z,11.10
2023-01-29T13:14:58.946Z,7.55
2023-01-29T13:20:12.976Z,7.10
2023-01-29T13:25:22.252Z,8.98
2023-01-29T13:30:32.747Z,6.65
2023-01-29T13:35:44.045Z,6.82
2023-01-29T13:40:55.645Z,6.05
2023-01-29T13:46:10.858Z,9.00
2023-01-29T13:51:21.875Z,7.60
2023-01-29T13:56:59.387Z,5.97
2023-01-29T14:02:07.487Z,5.15
2023-01-29T14:07:46.353Z,6.05
2023-01-29T14:12:54.298Z,10.52
2023-01-29T14:18:08.569Z,10.10
2023-01-29T14:23:32.950Z,10.68
2023-01-29T14:28:38.662Z,9.20
2023-01-29T14:33:48.836Z,12.13
2023-01-29T14:38:56.160Z,10.02
2023-01-29T14:44:33.132Z,9.68
2023-01-29T14:49:55.881Z,14.45
2023-01-29T14:55:04.493Z,13.52
2023-01-29T15:00:22.825Z,9.57
2023-01-29T15:05:40.761Z,10.15
2023-01-29T15:11:11.210Z,11.68
2023-01-29T15:16:21.633Z,13.32
2023-01-29T15:21:29.680Z,9.65
2023-01-29T15:26:36.166Z,9.27
2023-01-29T15:31:46.898Z,9.30
2023-01-29T15:36:54.445Z,10.90
2023-01-29T15:42:16.004Z,12.55
2023-01-29T15:47:22.294Z,11.60
2023-01-29T15:52:33.055Z,12.07
2023-01-29T15:57:42.955Z,13.20
2023-01-29T16:02:47.466Z,14.10
2023-01-29T16:07:58.052Z,14.63
2023-01-29T16:13:02.871Z,15.80
2023-01-29T16:18:22.959Z,14.13
2023-01-29T16:23:32.461Z,11.07
2023-01-29T16:28:42.182Z,11.98
2023-01-29T16:38:56.439Z,10.68
2023-01-29T16:44:04.265Z,13.65
2023-01-29T16:49:45.915Z,15.35
2023-01-29T16:54:52.209Z,13.43
2023-01-29T16:59:58.751Z,11.30
2023-01-29T17:05:06.613Z,10.93
2023-01-29T17:10:23.186Z,10.30
2023-01-29T17:15:45.549Z,9.88
2023-01-29T17:20:50.589Z,10.10
2023-01-29T17:25:56.080Z,10.90
2023-01-29T17:31:06.344Z,12.10
2023-01-29T17:36:16.543Z,11.63
2023-01-29T17:41:26.371Z,11.82
2023-01-29T17:46:31.960Z,14.13
2023-01-29T17:51:36.260Z,16.20
2023-01-29T17:56:42.052Z,13.02
2023-01-29T18:01:47.124Z,12.38
2023-01-29T18:06:53.171Z,11.98
2023-01-29T18:11:59.199Z,14.65
2023-01-29T18:17:06.375Z,11.10
2023-01-29T18:22:14.211Z,10.65
2023-01-29T18:27:21.570Z,17.55
2023-01-29T18:32:26.870Z,10.52
2023-01-29T18:37:31.987Z,14.23
2023-01-29T18:42:40.080Z,11.43
2023-01-29T18:47:44.947Z,13.15
2023-01-29T18:52:51.777Z,10.52
2023-01-29T18:58:27.239Z,14.90
2023-01-29T19:03:26.538Z,15.32
2023-01-29T19:08:31.331Z,18.30
2023-01-29T19:13:41.371Z,21.58
2023-01-29T19:18:46.094Z,14.35
2023-01-29T19:23:51.153Z,14.75
2023-01-29T19:28:57.832Z,18.77
2023-01-29T19:34:02.975Z,18.55
2023-01-29T19:39:15.950Z,19.80
2023-01-29T19:44:25.815Z,17.75
2023-01-29T19:49:31.313Z,16.80
2023-01-29T19:54:40.441Z,16.13
2023-01-29T19:59:48.250Z,17.23
2023-01-29T20:05:01.728Z,11.25
2023-01-29T20:10:12.314Z,12.50
2023-01-29T20:15:20.284Z,12.60
2023-01-29T20:20:24.557Z,16.50
2023-01-29T20:25:36.540Z,17.95
2023-01-29T20:30:44.801Z,19.88
2023-01-29T20:35:54.969Z,19.70
2023-01-29T20:41:05.702Z,16.10
2023-01-29T20:46:15.175Z,12.65
2023-01-29T20:51:22.932Z,10.57
2023-01-29T20:56:32.147Z,13.73
2023-01-29T21:01:46.271Z,10.15
2023-01-29T21:06:51.414Z,12.18
2023-01-29T21:11:55.952Z,12.48
2023-01-29T21:17:08.461Z,15.75
2023-01-29T21:22:12.698Z,15.02
2023-01-29T21:27:16.852Z,17.52
2023-01-29T21:32:22.436Z,15.05
2023-01-29T21:37:27.227Z,13.00
2023-01-29T21:42:49.024Z,12.50
2023-01-29T21:47:54.594Z,11.88
2023-01-29T21:52:58.617Z,14.85
2023-01-29T21:58:02.630Z,11.60
2023-01-29T22:03:09.000Z,12.00
2023-01-29T22:08:13.465Z,12.10
2023-01-29T22:13:18.608Z,11.80
2023-01-29T22:18:24.125Z,11.85
2023-01-29T22:23:28.216Z,11.63
2023-01-29T22:28:33.350Z,11.45
2023-01-29T22:33:39.399Z,11.73
2023-01-29T22:38:44.715Z,13.25
2023-01-29T22:43:48.768Z,12.10
2023-01-29T22:48:55.321Z,13.65
2023-01-29T22:54:01.231Z,12.88
2023-01-29T22:59:05.304Z,11.93
2023-01-29T23:04:12.867Z,11.77
2023-01-29T23:09:17.157Z,11.00
2023-01-29T23:14:21.313Z,12.82
2023-01-29T23:19:27.571Z,12.07
2023-01-29T23:24:33.884Z,11.75
2023-01-29T23:29:40.493Z,12.02
2023-01-29T23:34:46.573Z,10.95
2023-01-29T23:39:51.564Z,11.95
2023-01-29T23:44:55.557Z,11.68
2023-01-29T23:50:01.134Z,9.40
2023-01-29T23:55:05.791Z,11.23
